sensor_id;sensor_type;location;lat;lon;timestamp;temperature;humidity
4934;DHT22;2482;49.154;8.254;2023-05-16T00:00:45;12.80;99.90
4934;DHT22;2482;49.154;8.254;2023-05-16T00:03:13;12.70;99.90
4934;DHT22;2482;49.154;8.254;2023-05-16T00:05:41;12.70;99.90
4934;DHT22;2482;49.154;8.254;2023-05-16T00:08:07;12.70;99.90
4934;DHT22;2482;49.154;8.254;2023-05-16T00:10:34;12.80;99.90
4934;DHT22;2482;49.154;8.254;2023-05-16T00:13:02;12.90;99.90
4934;DHT22;2482;49.154;8.254;2023-05-16T00:15:29;12.90;99.90
4934;DHT22;2482;49.154;8.254;2023-05-16T00:17:56;12.80;99.90
4934;DHT22;2482;49.154;8.254;2023-05-16T00:20:27;12.80;99.90
4934;DHT22;2482;49.154;8.254;2023-05-16T00:22:54;12.70;99.90
4934;DHT22;2482;49.154;8.254;2023-05-16T00:25:22;12.60;99.90
4934;DHT22;2482;49.154;8.254;2023-05-16T00:27:49;12.60;99.90
4934;DHT22;2482;49.154;8.254;2023-05-16T00:30:16;12.60;99.90
4934;DHT22;2482;49.154;8.254;2023-05-16T00:32:42;12.60;99.90
4934;DHT22;2482;49.154;8.254;2023-05-16T00:35:09;12.50;99.90
4934;DHT22;2482;49.154;8.254;2023-05-16T00:37:38;12.50;99.90
4934;DHT22;2482;49.154;8.254;2023-05-16T00:40:05;12.60;99.90
4934;DHT22;2482;49.154;8.254;2023-05-16T00:42:33;12.60;99.90
4934;DHT22;2482;49.154;8.254;2023-05-16T00:45:00;12.60;99.90
4934;DHT22;2482;49.154;8.254;2023-05-16T00:47:27;12.50;99.90
4934;DHT22;2482;49.154;8.254;2023-05-16T00:49:55;12.60;99.90
4934;DHT22;2482;49.154;8.254;2023-05-16T00:52:22;12.70;99.90
4934;DHT22;2482;49.154;8.254;2023-05-16T00:54:50;12.80;99.90
4934;DHT22;2482;49.154;8.254;2023-05-16T00:57:18;13.00;99.90
4934;DHT22;2482;49.154;8.254;2023-05-16T00:59:45;12.90;99.90
4934;DHT22;2482;49.154;8.254;2023-05-16T01:02:13;12.80;99.90
4934;DHT22;2482;49.154;8.254;2023-05-16T01:04:41;12.80;99.90
4934;DHT22;2482;49.154;8.254;2023-05-16T01:07:09;12.70;99.90
4934;DHT22;2482;49.154;8.254;2023-05-16T01:09:36;12.70;99.90
4934;DHT22;2482;49.154;8.254;2023-05-16T01:15:29;12.50;99.90
4934;DHT22;2482;49.154;8.254;2023-05-16T01:18:11;12.40;99.90
4934;DHT22;2482;49.154;8.254;2023-05-16T01:20:58;12.30;99.90
4934;DHT22;2482;49.154;8.254;2023-05-16T01:23:50;12.30;99.90
4934;DHT22;2482;49.154;8.254;2023-05-16T01:26:21;12.30;99.90
4934;DHT22;2482;49.154;8.254;2023-05-16T01:28:50;12.40;99.90
4934;DHT22;2482;49.154;8.254;2023-05-16T01:31:21;12.30;99.90
4934;DHT22;2482;49.154;8.254;2023-05-16T01:33:49;12.20;99.90
4934;DHT22;2482;49.154;8.254;2023-05-16T01:36:24;12.10;99.90
4934;DHT22;2482;49.154;8.254;2023-05-16T01:39:36;12.20;99.90
4934;DHT22;2482;49.154;8.254;2023-05-16T01:42:13;12.20;99.90
4934;DHT22;2482;49.154;8.254;2023-05-16T01:45:28;12.00;99.90
4934;DHT22;2482;49.154;8.254;2023-05-16T01:48:04;12.00;99.90
4934;DHT22;2482;49.154;8.254;2023-05-16T01:50:38;12.10;99.90
4934;DHT22;2482;49.154;8.254;2023-05-16T01:53:15;12.00;99.90
4934;DHT22;2482;49.154;8.254;2023-05-16T01:55:47;12.00;99.90
4934;DHT22;2482;49.154;8.254;2023-05-16T01:58:18;11.90;99.90
4934;DHT22;2482;49.154;8.254;2023-05-16T02:00:47;11.90;99.90
4934;DHT22;2482;49.154;8.254;2023-05-16T02:03:14;11.90;99.90
4934;DHT22;2482;49.154;8.254;2023-05-16T02:05:41;11.90;99.90
4934;DHT22;2482;49.154;8.254;2023-05-16T02:08:08;11.90;99.90
4934;DHT22;2482;49.154;8.254;2023-05-16T02:10:35;12.00;99.90
4934;DHT22;2482;49.154;8.254;2023-05-16T02:13:02;11.80;99.90
4934;DHT22;2482;49.154;8.254;2023-05-16T02:15:29;11.80;99.90
4934;DHT22;2482;49.154;8.254;2023-05-16T02:17:57;11.80;99.90
4934;DHT22;2482;49.154;8.254;2023-05-16T02:20:25;11.80;99.90
4934;DHT22;2482;49.154;8.254;2023-05-16T02:22:52;11.80;99.90
4934;DHT22;2482;49.154;8.254;2023-05-16T02:25:19;11.70;99.90
4934;DHT22;2482;49.154;8.254;2023-05-16T02:27:46;11.70;99.90
4934;DHT22;2482;49.154;8.254;2023-05-16T02:30:13;11.60;99.90
4934;DHT22;2482;49.154;8.254;2023-05-16T02:32:40;11.60;99.90
4934;DHT22;2482;49.154;8.254;2023-05-16T02:35:11;11.60;99.90
4934;DHT22;2482;49.154;8.254;2023-05-16T02:37:38;11.40;99.90
4934;DHT22;2482;49.154;8.254;2023-05-16T02:40:06;11.40;99.90
4934;DHT22;2482;49.154;8.254;2023-05-16T02:42:34;11.30;99.90
4934;DHT22;2482;49.154;8.254;2023-05-16T02:45:01;11.30;99.90
4934;DHT22;2482;49.154;8.254;2023-05-16T02:47:28;11.30;99.90
4934;DHT22;2482;49.154;8.254;2023-05-16T02:49:55;11.30;99.90
4934;DHT22;2482;49.154;8.254;2023-05-16T02:52:22;11.20;99.90
4934;DHT22;2482;49.154;8.254;2023-05-16T02:54:49;11.30;99.90
4934;DHT22;2482;49.154;8.254;2023-05-16T02:57:36;11.20;99.90
4934;DHT22;2482;49.154;8.254;2023-05-16T03:00:03;11.30;99.90
4934;DHT22;2482;49.154;8.254;2023-05-16T03:02:32;11.30;99.90
4934;DHT22;2482;49.154;8.254;2023-05-16T03:04:59;11.20;99.90
4934;DHT22;2482;49.154;8.254;2023-05-16T03:07:26;11.20;99.90
4934;DHT22;2482;49.154;8.254;2023-05-16T03:09:53;11.10;99.90
4934;DHT22;2482;49.154;8.254;2023-05-16T03:12:19;11.10;99.90
4934;DHT22;2482;49.154;8.254;2023-05-16T03:14:47;11.00;99.90
4934;DHT22;2482;49.154;8.254;2023-05-16T03:17:15;10.90;99.90
4934;DHT22;2482;49.154;8.254;2023-05-16T03:19:42;10.80;99.90
4934;DHT22;2482;49.154;8.254;2023-05-16T03:22:09;10.80;99.90
4934;DHT22;2482;49.154;8.254;2023-05-16T03:24:35;10.80;99.90
4934;DHT22;2482;49.154;8.254;2023-05-16T03:27:03;10.90;99.90
4934;DHT22;2482;49.154;8.254;2023-05-16T03:29:30;10.90;99.90
4934;DHT22;2482;49.154;8.254;2023-05-16T03:31:57;11.00;99.90
4934;DHT22;2482;49.154;8.254;2023-05-16T03:34:24;10.90;99.90
4934;DHT22;2482;49.154;8.254;2023-05-16T03:36:51;10.90;99.90
4934;DHT22;2482;49.154;8.254;2023-05-16T03:39:19;10.80;99.90
4934;DHT22;2482;49.154;8.254;2023-05-16T03:41:46;10.80;99.90
4934;DHT22;2482;49.154;8.254;2023-05-16T03:44:13;10.70;99.90
4934;DHT22;2482;49.154;8.254;2023-05-16T03:46:40;10.60;99.90
4934;DHT22;2482;49.154;8.254;2023-05-16T03:49:08;10.50;99.90
4934;DHT22;2482;49.154;8.254;2023-05-16T03:51:35;10.50;99.90
4934;DHT22;2482;49.154;8.254;2023-05-16T03:54:02;10.50;99.90
4934;DHT22;2482;49.154;8.254;2023-05-16T03:56:29;10.40;99.90
4934;DHT22;2482;49.154;8.254;2023-05-16T03:58:56;10.30;99.90
4934;DHT22;2482;49.154;8.254;2023-05-16T04:01:23;10.20;99.90
4934;DHT22;2482;49.154;8.254;2023-05-16T04:03:52;10.20;99.90
4934;DHT22;2482;49.154;8.254;2023-05-16T04:06:19;10.20;99.90
4934;DHT22;2482;49.154;8.254;2023-05-16T04:08:47;10.30;99.90
4934;DHT22;2482;49.154;8.254;2023-05-16T04:11:14;10.40;99.90
4934;DHT22;2482;49.154;8.254;2023-05-16T04:13:42;10.30;99.90
4934;DHT22;2482;49.154;8.254;2023-05-16T04:16:09;10.30;99.90
4934;DHT22;2482;49.154;8.254;2023-05-16T04:18:36;10.40;99.90
4934;DHT22;2482;49.154;8.254;2023-05-16T04:21:03;10.60;99.90
4934;DHT22;2482;49.154;8.254;2023-05-16T04:23:31;10.70;99.90
4934;DHT22;2482;49.154;8.254;2023-05-16T04:25:57;10.70;99.90
4934;DHT22;2482;49.154;8.254;2023-05-16T04:28:25;10.80;99.90
4934;DHT22;2482;49.154;8.254;2023-05-16T04:30:52;10.70;99.90
4934;DHT22;2482;49.154;8.254;2023-05-16T04:33:19;10.80;99.90
4934;DHT22;2482;49.154;8.254;2023-05-16T04:35:46;10.90;99.90
4934;DHT22;2482;49.154;8.254;2023-05-16T04:38:14;11.00;99.90
4934;DHT22;2482;49.154;8.254;2023-05-16T04:40:41;10.90;99.90
4934;DHT22;2482;49.154;8.254;2023-05-16T04:43:08;11.00;99.90
4934;DHT22;2482;49.154;8.254;2023-05-16T04:45:35;11.10;99.90
4934;DHT22;2482;49.154;8.254;2023-05-16T04:48:03;11.10;99.90
4934;DHT22;2482;49.154;8.254;2023-05-16T04:50:31;11.20;99.90
4934;DHT22;2482;49.154;8.254;2023-05-16T04:52:57;11.20;99.90
4934;DHT22;2482;49.154;8.254;2023-05-16T04:55:24;11.20;99.90
4934;DHT22;2482;49.154;8.254;2023-05-16T04:57:52;11.20;99.90
4934;DHT22;2482;49.154;8.254;2023-05-16T05:00:19;11.30;99.90
4934;DHT22;2482;49.154;8.254;2023-05-16T05:02:46;11.20;99.90
4934;DHT22;2482;49.154;8.254;2023-05-16T05:05:13;11.20;99.90
4934;DHT22;2482;49.154;8.254;2023-05-16T05:07:40;11.30;99.90
4934;DHT22;2482;49.154;8.254;2023-05-16T05:10:08;11.50;99.90
4934;DHT22;2482;49.154;8.254;2023-05-16T05:12:36;11.60;99.90
4934;DHT22;2482;49.154;8.254;2023-05-16T05:15:04;11.70;99.90
4934;DHT22;2482;49.154;8.254;2023-05-16T05:17:32;11.80;99.90
4934;DHT22;2482;49.154;8.254;2023-05-16T05:19:59;12.00;99.90
4934;DHT22;2482;49.154;8.254;2023-05-16T05:22:28;12.10;99.90
4934;DHT22;2482;49.154;8.254;2023-05-16T05:24:55;12.20;99.90
4934;DHT22;2482;49.154;8.254;2023-05-16T05:27:22;12.20;99.90
4934;DHT22;2482;49.154;8.254;2023-05-16T05:29:50;12.30;99.90
4934;DHT22;2482;49.154;8.254;2023-05-16T05:32:17;12.40;99.90
4934;DHT22;2482;49.154;8.254;2023-05-16T05:34:44;12.40;99.90
4934;DHT22;2482;49.154;8.254;2023-05-16T05:37:11;12.40;99.90
4934;DHT22;2482;49.154;8.254;2023-05-16T05:39:39;12.50;99.90
4934;DHT22;2482;49.154;8.254;2023-05-16T05:42:06;12.40;99.90
4934;DHT22;2482;49.154;8.254;2023-05-16T05:44:33;12.20;99.90
4934;DHT22;2482;49.154;8.254;2023-05-16T05:47:00;12.20;99.90
4934;DHT22;2482;49.154;8.254;2023-05-16T05:49:27;12.20;99.90
4934;DHT22;2482;49.154;8.254;2023-05-16T05:51:55;12.20;99.90
4934;DHT22;2482;49.154;8.254;2023-05-16T05:54:22;12.10;99.90
4934;DHT22;2482;49.154;8.254;2023-05-16T05:56:51;12.20;99.90
4934;DHT22;2482;49.154;8.254;2023-05-16T05:59:18;12.20;99.90
4934;DHT22;2482;49.154;8.254;2023-05-16T06:01:45;12.30;99.90
4934;DHT22;2482;49.154;8.254;2023-05-16T06:04:12;12.30;99.90
4934;DHT22;2482;49.154;8.254;2023-05-16T06:06:39;12.40;99.90
4934;DHT22;2482;49.154;8.254;2023-05-16T06:09:06;12.50;99.90
4934;DHT22;2482;49.154;8.254;2023-05-16T06:11:33;12.60;99.90
4934;DHT22;2482;49.154;8.254;2023-05-16T06:14:00;12.60;99.90
4934;DHT22;2482;49.154;8.254;2023-05-16T06:16:27;12.60;99.90
4934;DHT22;2482;49.154;8.254;2023-05-16T06:18:54;12.60;99.90
4934;DHT22;2482;49.154;8.254;2023-05-16T06:21:21;12.70;99.90
4934;DHT22;2482;49.154;8.254;2023-05-16T06:23:48;12.70;99.90
4934;DHT22;2482;49.154;8.254;2023-05-16T06:26:15;12.80;99.90
4934;DHT22;2482;49.154;8.254;2023-05-16T06:28:42;12.90;99.90
4934;DHT22;2482;49.154;8.254;2023-05-16T06:31:09;13.00;99.90
4934;DHT22;2482;49.154;8.254;2023-05-16T06:33:36;13.10;99.90
4934;DHT22;2482;49.154;8.254;2023-05-16T06:36:03;13.20;99.90
4934;DHT22;2482;49.154;8.254;2023-05-16T06:38:31;12.90;99.90
4934;DHT22;2482;49.154;8.254;2023-05-16T06:40:58;12.90;99.90
4934;DHT22;2482;49.154;8.254;2023-05-16T06:43:25;12.80;99.90
4934;DHT22;2482;49.154;8.254;2023-05-16T06:45:52;12.70;99.90
4934;DHT22;2482;49.154;8.254;2023-05-16T06:48:20;12.60;99.90
4934;DHT22;2482;49.154;8.254;2023-05-16T06:50:50;12.50;99.90
4934;DHT22;2482;49.154;8.254;2023-05-16T06:53:18;12.40;99.90
4934;DHT22;2482;49.154;8.254;2023-05-16T06:55:46;12.40;99.90
4934;DHT22;2482;49.154;8.254;2023-05-16T06:58:13;12.20;99.90
4934;DHT22;2482;49.154;8.254;2023-05-16T07:00:40;12.20;99.90
4934;DHT22;2482;49.154;8.254;2023-05-16T07:03:07;12.30;99.90
4934;DHT22;2482;49.154;8.254;2023-05-16T07:05:35;12.30;99.90
4934;DHT22;2482;49.154;8.254;2023-05-16T07:08:02;12.30;99.90
4934;DHT22;2482;49.154;8.254;2023-05-16T07:10:32;12.20;99.90
4934;DHT22;2482;49.154;8.254;2023-05-16T07:12:59;12.20;99.90
4934;DHT22;2482;49.154;8.254;2023-05-16T07:15:27;12.30;99.90
4934;DHT22;2482;49.154;8.254;2023-05-16T07:17:55;12.20;99.90
4934;DHT22;2482;49.154;8.254;2023-05-16T07:20:23;12.20;99.90
4934;DHT22;2482;49.154;8.254;2023-05-16T07:22:50;12.20;99.90
4934;DHT22;2482;49.154;8.254;2023-05-16T07:25:17;12.40;99.90
4934;DHT22;2482;49.154;8.254;2023-05-16T07:27:44;12.40;99.90
4934;DHT22;2482;49.154;8.254;2023-05-16T07:30:12;12.40;99.90
4934;DHT22;2482;49.154;8.254;2023-05-16T07:32:39;12.40;99.90
4934;DHT22;2482;49.154;8.254;2023-05-16T07:35:07;12.40;99.90
4934;DHT22;2482;49.154;8.254;2023-05-16T07:37:35;12.40;99.90
4934;DHT22;2482;49.154;8.254;2023-05-16T07:40:02;12.30;99.90
4934;DHT22;2482;49.154;8.254;2023-05-16T07:42:30;12.30;99.90
4934;DHT22;2482;49.154;8.254;2023-05-16T07:44:57;12.20;99.90
4934;DHT22;2482;49.154;8.254;2023-05-16T07:47:24;12.20;99.90
4934;DHT22;2482;49.154;8.254;2023-05-16T07:49:51;12.30;99.90
4934;DHT22;2482;49.154;8.254;2023-05-16T07:52:18;12.30;99.90
4934;DHT22;2482;49.154;8.254;2023-05-16T07:54:46;12.30;99.90
4934;DHT22;2482;49.154;8.254;2023-05-16T07:57:14;12.40;99.90
4934;DHT22;2482;49.154;8.254;2023-05-16T07:59:42;12.40;99.90
4934;DHT22;2482;49.154;8.254;2023-05-16T08:02:10;12.50;99.90
4934;DHT22;2482;49.154;8.254;2023-05-16T08:04:37;12.60;99.90
4934;DHT22;2482;49.154;8.254;2023-05-16T08:07:05;12.60;99.90
4934;DHT22;2482;49.154;8.254;2023-05-16T08:09:32;12.60;99.90
4934;DHT22;2482;49.154;8.254;2023-05-16T08:11:59;12.60;99.90
4934;DHT22;2482;49.154;8.254;2023-05-16T08:14:32;12.60;99.90
4934;DHT22;2482;49.154;8.254;2023-05-16T08:16:59;12.70;99.90
4934;DHT22;2482;49.154;8.254;2023-05-16T08:19:27;12.60;99.90
4934;DHT22;2482;49.154;8.254;2023-05-16T08:21:55;12.70;99.90
4934;DHT22;2482;49.154;8.254;2023-05-16T08:24:23;12.70;99.90
4934;DHT22;2482;49.154;8.254;2023-05-16T08:26:51;12.70;99.90
4934;DHT22;2482;49.154;8.254;2023-05-16T08:29:18;12.80;99.90
4934;DHT22;2482;49.154;8.254;2023-05-16T08:31:45;12.80;99.90
4934;DHT22;2482;49.154;8.254;2023-05-16T08:34:12;12.90;99.90
4934;DHT22;2482;49.154;8.254;2023-05-16T08:36:39;13.00;99.90
4934;DHT22;2482;49.154;8.254;2023-05-16T08:39:06;13.00;99.90
4934;DHT22;2482;49.154;8.254;2023-05-16T08:41:33;12.90;99.90
4934;DHT22;2482;49.154;8.254;2023-05-16T08:44:00;12.80;99.90
4934;DHT22;2482;49.154;8.254;2023-05-16T08:46:28;12.90;99.90
4934;DHT22;2482;49.154;8.254;2023-05-16T08:48:58;12.70;99.90
4934;DHT22;2482;49.154;8.254;2023-05-16T08:51:27;12.70;99.90
4934;DHT22;2482;49.154;8.254;2023-05-16T08:54:07;12.50;99.90
4934;DHT22;2482;49.154;8.254;2023-05-16T08:56:37;12.40;99.90
4934;DHT22;2482;49.154;8.254;2023-05-16T08:59:05;12.20;99.90
4934;DHT22;2482;49.154;8.254;2023-05-16T09:01:32;12.20;99.90
4934;DHT22;2482;49.154;8.254;2023-05-16T09:04:00;12.20;99.90
4934;DHT22;2482;49.154;8.254;2023-05-16T09:06:29;12.20;99.90
4934;DHT22;2482;49.154;8.254;2023-05-16T09:08:58;12.30;99.90
4934;DHT22;2482;49.154;8.254;2023-05-16T09:11:25;12.30;99.90
4934;DHT22;2482;49.154;8.254;2023-05-16T09:13:51;12.30;99.90
4934;DHT22;2482;49.154;8.254;2023-05-16T09:16:19;12.10;99.90
4934;DHT22;2482;49.154;8.254;2023-05-16T09:18:58;12.10;99.90
4934;DHT22;2482;49.154;8.254;2023-05-16T09:21:33;12.10;99.90
4934;DHT22;2482;49.154;8.254;2023-05-16T09:24:04;12.00;99.90
4934;DHT22;2482;49.154;8.254;2023-05-16T09:26:33;12.00;99.90
4934;DHT22;2482;49.154;8.254;2023-05-16T09:29:04;12.10;99.90
4934;DHT22;2482;49.154;8.254;2023-05-16T09:31:36;12.00;99.90
4934;DHT22;2482;49.154;8.254;2023-05-16T09:34:08;11.90;99.90
4934;DHT22;2482;49.154;8.254;2023-05-16T09:36:37;12.00;99.90
4934;DHT22;2482;49.154;8.254;2023-05-16T09:39:06;11.90;99.90
4934;DHT22;2482;49.154;8.254;2023-05-16T09:41:34;11.80;99.90
4934;DHT22;2482;49.154;8.254;2023-05-16T09:44:05;11.90;99.90
4934;DHT22;2482;49.154;8.254;2023-05-16T09:46:37;12.00;99.90
4934;DHT22;2482;49.154;8.254;2023-05-16T09:49:04;12.10;99.90
4934;DHT22;2482;49.154;8.254;2023-05-16T09:51:31;12.30;99.90
4934;DHT22;2482;49.154;8.254;2023-05-16T09:54:00;12.40;99.90
4934;DHT22;2482;49.154;8.254;2023-05-16T09:56:27;12.70;99.90
4934;DHT22;2482;49.154;8.254;2023-05-16T09:58:55;12.90;99.90
4934;DHT22;2482;49.154;8.254;2023-05-16T10:01:23;12.70;99.90
4934;DHT22;2482;49.154;8.254;2023-05-16T10:03:51;12.50;99.90
4934;DHT22;2482;49.154;8.254;2023-05-16T10:06:18;12.50;99.90
4934;DHT22;2482;49.154;8.254;2023-05-16T10:08:46;12.40;99.90
4934;DHT22;2482;49.154;8.254;2023-05-16T10:11:15;12.40;99.90
4934;DHT22;2482;49.154;8.254;2023-05-16T10:13:44;12.40;99.90
4934;DHT22;2482;49.154;8.254;2023-05-16T10:16:17;12.50;99.90
4934;DHT22;2482;49.154;8.254;2023-05-16T10:18:44;12.40;99.90
4934;DHT22;2482;49.154;8.254;2023-05-16T10:21:15;12.10;99.90
4934;DHT22;2482;49.154;8.254;2023-05-16T10:23:47;12.10;99.90
4934;DHT22;2482;49.154;8.254;2023-05-16T10:26:16;12.20;99.90
4934;DHT22;2482;49.154;8.254;2023-05-16T10:28:44;12.30;99.90
4934;DHT22;2482;49.154;8.254;2023-05-16T10:31:11;12.30;99.90
4934;DHT22;2482;49.154;8.254;2023-05-16T10:33:40;12.10;99.90
4934;DHT22;2482;49.154;8.254;2023-05-16T10:36:09;12.10;99.90
4934;DHT22;2482;49.154;8.254;2023-05-16T10:38:38;12.20;99.90
4934;DHT22;2482;49.154;8.254;2023-05-16T10:41:06;12.00;99.90
4934;DHT22;2482;49.154;8.254;2023-05-16T10:43:34;12.10;99.90
4934;DHT22;2482;49.154;8.254;2023-05-16T10:46:04;12.10;99.90
4934;DHT22;2482;49.154;8.254;2023-05-16T10:48:36;11.90;99.90
4934;DHT22;2482;49.154;8.254;2023-05-16T10:54:09;11.80;99.90
4934;DHT22;2482;49.154;8.254;2023-05-16T10:56:38;11.90;99.90
4934;DHT22;2482;49.154;8.254;2023-05-16T10:59:22;11.90;99.90
4934;DHT22;2482;49.154;8.254;2023-05-16T11:01:54;12.00;99.90
4934;DHT22;2482;49.154;8.254;2023-05-16T11:04:22;12.20;99.90
4934;DHT22;2482;49.154;8.254;2023-05-16T11:06:51;12.10;99.90
4934;DHT22;2482;49.154;8.254;2023-05-16T11:09:21;11.90;99.90
4934;DHT22;2482;49.154;8.254;2023-05-16T11:12:02;11.90;99.90
4934;DHT22;2482;49.154;8.254;2023-05-16T11:14:39;11.80;99.90
4934;DHT22;2482;49.154;8.254;2023-05-16T11:17:23;11.80;99.90
4934;DHT22;2482;49.154;8.254;2023-05-16T11:19:57;11.90;99.90
4934;DHT22;2482;49.154;8.254;2023-05-16T11:22:28;12.00;99.90
4934;DHT22;2482;49.154;8.254;2023-05-16T11:27:44;12.20;99.90
4934;DHT22;2482;49.154;8.254;2023-05-16T11:30:15;12.30;99.90
4934;DHT22;2482;49.154;8.254;2023-05-16T11:32:46;12.40;99.90
4934;DHT22;2482;49.154;8.254;2023-05-16T11:35:15;12.50;99.90
4934;DHT22;2482;49.154;8.254;2023-05-16T11:37:44;12.50;99.90
4934;DHT22;2482;49.154;8.254;2023-05-16T11:40:12;12.40;99.90
4934;DHT22;2482;49.154;8.254;2023-05-16T11:42:45;12.40;99.90
4934;DHT22;2482;49.154;8.254;2023-05-16T11:45:17;12.20;99.90
4934;DHT22;2482;49.154;8.254;2023-05-16T11:47:47;12.10;99.90
4934;DHT22;2482;49.154;8.254;2023-05-16T11:50:16;12.00;99.90
4934;DHT22;2482;49.154;8.254;2023-05-16T11:52:50;11.90;99.90
4934;DHT22;2482;49.154;8.254;2023-05-16T11:55:27;11.80;99.90
4934;DHT22;2482;49.154;8.254;2023-05-16T11:58:08;11.90;99.90
4934;DHT22;2482;49.154;8.254;2023-05-16T12:00:35;12.10;99.90
4934;DHT22;2482;49.154;8.254;2023-05-16T12:03:03;12.10;99.90
4934;DHT22;2482;49.154;8.254;2023-05-16T12:05:32;12.20;99.90
4934;DHT22;2482;49.154;8.254;2023-05-16T12:08:01;12.10;99.90
4934;DHT22;2482;49.154;8.254;2023-05-16T12:10:31;12.10;99.90
4934;DHT22;2482;49.154;8.254;2023-05-16T12:13:01;11.90;99.90
4934;DHT22;2482;49.154;8.254;2023-05-16T12:15:29;11.80;99.90
4934;DHT22;2482;49.154;8.254;2023-05-16T12:17:57;11.80;99.90
4934;DHT22;2482;49.154;8.254;2023-05-16T12:20:25;11.70;99.90
4934;DHT22;2482;49.154;8.254;2023-05-16T12:22:56;11.60;99.90
4934;DHT22;2482;49.154;8.254;2023-05-16T12:25:27;11.50;99.90
4934;DHT22;2482;49.154;8.254;2023-05-16T12:28:00;11.40;99.90
4934;DHT22;2482;49.154;8.254;2023-05-16T12:30:30;11.40;99.90
4934;DHT22;2482;49.154;8.254;2023-05-16T12:32:58;11.50;99.90
4934;DHT22;2482;49.154;8.254;2023-05-16T12:35:30;11.50;99.90
4934;DHT22;2482;49.154;8.254;2023-05-16T12:37:59;11.50;99.90
4934;DHT22;2482;49.154;8.254;2023-05-16T12:40:29;11.40;99.90
4934;DHT22;2482;49.154;8.254;2023-05-16T12:42:58;11.40;99.90
4934;DHT22;2482;49.154;8.254;2023-05-16T12:45:28;11.50;99.90
4934;DHT22;2482;49.154;8.254;2023-05-16T12:47:55;11.50;99.90
4934;DHT22;2482;49.154;8.254;2023-05-16T12:50:25;11.50;99.90
4934;DHT22;2482;49.154;8.254;2023-05-16T12:52:54;11.50;99.90
4934;DHT22;2482;49.154;8.254;2023-05-16T12:55:24;11.50;99.90
4934;DHT22;2482;49.154;8.254;2023-05-16T12:57:55;11.40;99.90
4934;DHT22;2482;49.154;8.254;2023-05-16T13:00:23;11.30;99.90
4934;DHT22;2482;49.154;8.254;2023-05-16T13:02:53;11.30;99.90
4934;DHT22;2482;49.154;8.254;2023-05-16T13:05:20;11.30;99.90
4934;DHT22;2482;49.154;8.254;2023-05-16T13:07:49;11.30;99.90
4934;DHT22;2482;49.154;8.254;2023-05-16T13:10:20;11.40;99.90
4934;DHT22;2482;49.154;8.254;2023-05-16T13:12:48;11.40;99.90
4934;DHT22;2482;49.154;8.254;2023-05-16T13:15:15;11.40;99.90
4934;DHT22;2482;49.154;8.254;2023-05-16T13:17:42;11.50;99.90
4934;DHT22;2482;49.154;8.254;2023-05-16T13:20:14;11.50;99.90
4934;DHT22;2482;49.154;8.254;2023-05-16T13:22:44;11.50;99.90
4934;DHT22;2482;49.154;8.254;2023-05-16T13:25:13;11.50;99.90
4934;DHT22;2482;49.154;8.254;2023-05-16T13:27:40;11.60;99.90
4934;DHT22;2482;49.154;8.254;2023-05-16T13:30:07;11.70;99.90
4934;DHT22;2482;49.154;8.254;2023-05-16T13:32:35;11.70;99.90
4934;DHT22;2482;49.154;8.254;2023-05-16T13:35:02;11.80;99.90
4934;DHT22;2482;49.154;8.254;2023-05-16T13:37:29;12.00;99.90
4934;DHT22;2482;49.154;8.254;2023-05-16T13:39:57;12.00;99.90
4934;DHT22;2482;49.154;8.254;2023-05-16T13:42:24;12.10;99.90
4934;DHT22;2482;49.154;8.254;2023-05-16T13:44:51;12.20;99.90
4934;DHT22;2482;49.154;8.254;2023-05-16T13:47:18;12.40;99.90
4934;DHT22;2482;49.154;8.254;2023-05-16T13:49:45;12.60;99.90
4934;DHT22;2482;49.154;8.254;2023-05-16T13:52:13;12.70;99.90
4934;DHT22;2482;49.154;8.254;2023-05-16T13:54:40;12.70;99.90
4934;DHT22;2482;49.154;8.254;2023-05-16T13:57:07;12.90;99.90
4934;DHT22;2482;49.154;8.254;2023-05-16T13:59:34;12.90;99.90
4934;DHT22;2482;49.154;8.254;2023-05-16T14:02:04;12.90;99.90
4934;DHT22;2482;49.154;8.254;2023-05-16T14:04:31;13.00;99.90
4934;DHT22;2482;49.154;8.254;2023-05-16T14:06:58;12.90;99.90
4934;DHT22;2482;49.154;8.254;2023-05-16T14:09:25;12.90;99.90
4934;DHT22;2482;49.154;8.254;2023-05-16T14:11:52;13.10;99.90
4934;DHT22;2482;49.154;8.254;2023-05-16T14:14:19;13.10;99.90
4934;DHT22;2482;49.154;8.254;2023-05-16T14:16:48;13.20;99.90
4934;DHT22;2482;49.154;8.254;2023-05-16T14:19:16;13.20;99.90
4934;DHT22;2482;49.154;8.254;2023-05-16T14:21:46;13.30;99.90
4934;DHT22;2482;49.154;8.254;2023-05-16T14:24:13;13.50;99.90
4934;DHT22;2482;49.154;8.254;2023-05-16T14:26:40;13.60;99.90
4934;DHT22;2482;49.154;8.254;2023-05-16T14:29:07;13.70;99.90
4934;DHT22;2482;49.154;8.254;2023-05-16T14:31:34;13.80;99.90
4934;DHT22;2482;49.154;8.254;2023-05-16T14:34:04;13.90;99.90
4934;DHT22;2482;49.154;8.254;2023-05-16T14:36:32;14.00;99.90
4934;DHT22;2482;49.154;8.254;2023-05-16T14:38:59;14.10;99.90
4934;DHT22;2482;49.154;8.254;2023-05-16T14:41:26;14.30;99.90
4934;DHT22;2482;49.154;8.254;2023-05-16T14:43:54;14.50;99.90
4934;DHT22;2482;49.154;8.254;2023-05-16T14:46:21;14.50;99.90
4934;DHT22;2482;49.154;8.254;2023-05-16T14:48:48;14.60;99.90
4934;DHT22;2482;49.154;8.254;2023-05-16T14:51:16;14.80;99.90
4934;DHT22;2482;49.154;8.254;2023-05-16T14:53:43;14.60;99.90
4934;DHT22;2482;49.154;8.254;2023-05-16T14:56:12;14.80;99.90
4934;DHT22;2482;49.154;8.254;2023-05-16T14:58:41;15.00;99.90
4934;DHT22;2482;49.154;8.254;2023-05-16T15:01:08;15.00;99.90
4934;DHT22;2482;49.154;8.254;2023-05-16T15:03:36;15.20;99.90
4934;DHT22;2482;49.154;8.254;2023-05-16T15:06:21;15.20;99.90
4934;DHT22;2482;49.154;8.254;2023-05-16T15:08:48;15.40;99.90
4934;DHT22;2482;49.154;8.254;2023-05-16T15:11:15;15.70;99.90
4934;DHT22;2482;49.154;8.254;2023-05-16T15:13:42;15.80;99.90
4934;DHT22;2482;49.154;8.254;2023-05-16T15:16:09;16.00;99.90
4934;DHT22;2482;49.154;8.254;2023-05-16T15:18:36;15.60;99.90
4934;DHT22;2482;49.154;8.254;2023-05-16T15:21:03;15.50;99.90
4934;DHT22;2482;49.154;8.254;2023-05-16T15:23:30;15.70;99.90
4934;DHT22;2482;49.154;8.254;2023-05-16T15:25:57;15.70;99.90
4934;DHT22;2482;49.154;8.254;2023-05-16T15:28:24;15.80;99.90
4934;DHT22;2482;49.154;8.254;2023-05-16T15:30:51;15.90;99.90
4934;DHT22;2482;49.154;8.254;2023-05-16T15:33:18;15.90;99.90
4934;DHT22;2482;49.154;8.254;2023-05-16T15:35:46;15.90;99.90
4934;DHT22;2482;49.154;8.254;2023-05-16T15:38:13;15.80;99.90
4934;DHT22;2482;49.154;8.254;2023-05-16T15:40:41;15.90;99.90
4934;DHT22;2482;49.154;8.254;2023-05-16T15:43:08;15.50;99.90
4934;DHT22;2482;49.154;8.254;2023-05-16T15:45:35;15.50;99.90
4934;DHT22;2482;49.154;8.254;2023-05-16T15:48:06;15.60;99.90
4934;DHT22;2482;49.154;8.254;2023-05-16T15:50:33;15.40;99.90
4934;DHT22;2482;49.154;8.254;2023-05-16T15:53:00;15.70;99.90
4934;DHT22;2482;49.154;8.254;2023-05-16T15:55:27;15.70;99.90
4934;DHT22;2482;49.154;8.254;2023-05-16T15:57:55;15.70;99.90
4934;DHT22;2482;49.154;8.254;2023-05-16T16:00:24;15.60;99.90
4934;DHT22;2482;49.154;8.254;2023-05-16T16:02:51;15.60;99.90
4934;DHT22;2482;49.154;8.254;2023-05-16T16:05:19;15.30;99.90
4934;DHT22;2482;49.154;8.254;2023-05-16T16:07:46;15.00;99.90
4934;DHT22;2482;49.154;8.254;2023-05-16T16:10:13;15.10;99.90
4934;DHT22;2482;49.154;8.254;2023-05-16T16:12:40;15.30;99.90
4934;DHT22;2482;49.154;8.254;2023-05-16T16:15:09;15.50;99.90
4934;DHT22;2482;49.154;8.254;2023-05-16T16:17:36;15.30;99.90
4934;DHT22;2482;49.154;8.254;2023-05-16T16:20:04;15.30;99.90